Terminal Aerodrome Forecast
Issued by NWS Boston, MA

Home | Current Version | Previous Version | Text Only | Print | Product List | Glossary On
Versions: 1 2 3 4 5 6 7 8 9 10 11 12 13 14 15 16 17 18 19 20 21 22 23 24 25 26 27 28 29 30 31 32 33 34 35 36 37 38 39 40 41 42 43 44
000
FTUS41 KBOX 262113 AAA
TAFORH
TAF AMD
KORH 262113Z 2621/2718 03012G28KT 1/4SM +SN OVC003
     FM262200 03010G20KT 1/4SM +SNPL OVC010
     FM270300 36011KT 1SM -SNPL OVC015
     FM270600 34010KT P6SM OVC025
     FM270900 33008KT P6SM OVC015=

USA.gov is the U.S. government's official web portal to all federal, state and local government web resources and services.